Boston, Massachusetts
Current Conditions -  °F | °C
As of 1:54 AM on Saturday 29 Nov 2014 (Local Time) from KBOS Reporting Station
Clear Clear  
Wind Chill: 16°   Ceiling: Unl
Heat Index: 26°   Visibility: 10mi
Dew Point: 15°   Wind: 12mph
Humidity: 63%   Direction: 300°WNW
Pressure: 30.24"   Gusts: NA
Location:  42.36°N, 71.06°W
Report Text: KBOS 290654Z 30010KT 10SM CLR M03/M09 A3024 RMK AO2 SLP240 T10331094
Loading
Personal Weather Stations






























Interactive Weather Map New forecast layout! Learn more

10-Day Weather Forecast

Advertisements
Track Severe Weather on mobile